Terminal Aerodrome Forecast
Issued by NWS Wilmington, OH

Current Version | Previous Version | Graphics & Text | Print | Product List | Glossary On
Versions: 1 2 3 4 5 6 7 8 9 10 11 12
000
FTUS41 KILN 161700
TAFCMH
TAF
KCMH 161740Z 1618/1718 11008KT P6SM BKN250
     FM170000 11008KT P6SM BKN250
     FM170900 14010KT P6SM BKN250
     FM171400 17010KT P6SM BKN250=

USA.gov is the U.S. government's official web portal to all federal, state and local government web resources and services.